createdAt,value
2019-03-28T00:02:46.246Z,33.60
2019-03-28T00:05:33.905Z,26.63
2019-03-28T00:08:02.314Z,20.17
2019-03-28T00:10:49.864Z,23.33
2019-03-28T00:13:18.271Z,30.60
2019-03-28T00:16:05.796Z,26.53
2019-03-28T00:18:34.198Z,20.60
2019-03-28T00:21:02.926Z,16.30
2019-03-28T00:26:29.963Z,27.10
2019-03-28T00:28:50.528Z,19.10
2019-03-28T00:31:38.213Z,22.93
2019-03-28T00:34:06.615Z,19.83
2019-03-28T00:36:54.365Z,29.63
2019-03-28T00:39:22.766Z,22.13
2019-03-28T00:42:10.293Z,23.23
2019-03-28T00:44:38.772Z,21.73
2019-03-28T00:47:07.185Z,17.90
2019-03-28T00:49:54.841Z,22.53
2019-03-28T00:52:23.254Z,30.80
2019-03-28T00:55:11.388Z,31.30
2019-03-28T00:57:41.036Z,22.73
2019-03-28T01:00:49.357Z,23.23
2019-03-28T01:03:36.876Z,19.63
2019-03-28T01:06:45.194Z,29.93
2019-03-28T01:09:32.842Z,19.43
2019-03-28T01:12:20.590Z,26.20
2019-03-28T01:14:48.998Z,17.73
2019-03-28T01:17:36.662Z,16.60
2019-03-28T01:20:24.404Z,25.73
2019-03-28T01:22:52.805Z,25.93
2019-03-28T01:25:21.221Z,16.57
2019-03-28T01:27:50.255Z,25.23
2019-03-28T01:30:19.763Z,35.90
2019-03-28T01:32:48.167Z,21.33
2019-03-28T01:35:16.573Z,21.50
2019-03-28T01:37:44.980Z,18.17
2019-03-28T01:40:53.297Z,23.43
2019-03-28T01:43:21.696Z,18.17
2019-03-28T01:45:50.114Z,23.83
2019-03-28T01:48:18.512Z,34.83
2019-03-28T01:51:06.328Z,30.73
2019-03-28T01:53:36.293Z,32.43
2019-03-28T01:56:04.707Z,22.83
2019-03-28T01:58:33.113Z,20.17
2019-03-28T02:01:02.979Z,27.83
2019-03-28T02:03:31.645Z,20.83
2019-03-28T02:06:19.168Z,26.57
2019-03-28T02:08:47.570Z,21.97
2019-03-28T02:11:55.885Z,25.57
2019-03-28T02:14:24.291Z,27.87
2019-03-28T02:17:12.182Z,19.87
2019-03-28T02:19:42.167Z,19.60
2019-03-28T02:22:10.583Z,21.90
2019-03-28T02:24:58.230Z,19.50
2019-03-28T02:27:26.646Z,19.37
2019-03-28T02:29:55.047Z,21.20
2019-03-28T02:32:42.710Z,20.70
2019-03-28T02:38:06.142Z,22.73
2019-03-28T02:40:34.564Z,23.43
2019-03-28T02:43:02.962Z,28.23
2019-03-28T02:45:50.485Z,24.40
2019-03-28T02:48:18.886Z,24.27
2019-03-28T02:51:06.800Z,24.70
2019-03-28T02:53:54.452Z,30.03
2019-03-28T02:56:42.154Z,34.50
2019-03-28T02:59:10.566Z,20.73
2019-03-28T03:01:58.225Z,27.93
2019-03-28T03:04:26.634Z,22.93
2019-03-28T03:06:55.046Z,28.37
2019-03-28T03:09:42.691Z,23.37
2019-03-28T03:12:11.104Z,17.00
2019-03-28T03:14:39.509Z,22.20
2019-03-28T03:17:27.165Z,25.17
2019-03-28T03:19:55.564Z,28.67
2019-03-28T03:22:23.974Z,24.47
2019-03-28T03:25:11.620Z,34.33
2019-03-28T03:27:59.575Z,28.10
2019-03-28T03:30:48.519Z,20.80
2019-03-28T03:33:16.935Z,26.43
2019-03-28T03:36:04.614Z,28.40
2019-03-28T03:38:33.008Z,18.00
2019-03-28T03:43:55.577Z,22.43
2019-03-28T03:46:43.238Z,24.17
2019-03-28T03:49:11.638Z,28.03
2019-03-28T03:51:40.665Z,22.10
2019-03-28T03:54:10.169Z,27.43
2019-03-28T03:56:57.834Z,27.50
2019-03-28T03:59:26.265Z,22.67
2019-03-28T04:02:13.904Z,28.73
2019-03-28T04:07:29.746Z,25.23
2019-03-28T04:10:17.396Z,30.23
2019-03-28T04:12:45.803Z,34.67
2019-03-28T04:15:33.454Z,24.67
2019-03-28T04:18:02.123Z,34.80
2019-03-28T04:20:49.785Z,31.53
2019-03-28T04:23:18.226Z,20.67
2019-03-28T04:25:46.596Z,28.00
2019-03-28T04:28:34.345Z,33.67
2019-03-28T04:31:02.779Z,36.17
2019-03-28T04:33:50.661Z,26.67
2019-03-28T04:36:19.087Z,27.53
2019-03-28T04:38:47.482Z,29.80
2019-03-28T04:41:15.881Z,31.10
2019-03-28T04:43:44.295Z,26.83
2019-03-28T04:46:12.697Z,25.70
2019-03-28T04:49:00.359Z,26.67
2019-03-28T04:51:28.756Z,27.53
2019-03-28T04:56:31.120Z,25.23
2019-03-28T05:01:33.935Z,28.40
2019-03-28T05:06:38.002Z,31.80
2019-03-28T05:09:46.080Z,34.20
2019-03-28T05:12:14.481Z,24.13
2019-03-28T05:14:42.891Z,39.93
2019-03-28T05:17:11.300Z,37.57
2019-03-28T05:22:14.328Z,30.73
2019-03-28T05:24:42.743Z,27.93
2019-03-28T05:27:11.147Z,32.17
2019-03-28T05:29:58.799Z,33.93
2019-03-28T05:32:46.319Z,36.07
2019-03-28T05:37:48.689Z,29.57
2019-03-28T05:40:36.576Z,25.00
2019-03-28T05:43:24.349Z,23.77
2019-03-28T05:45:52.750Z,26.93
2019-03-28T05:48:21.160Z,27.20
2019-03-28T05:51:08.682Z,31.50
2019-03-28T05:53:37.090Z,29.23
2019-03-28T05:58:52.947Z,29.37
2019-03-28T06:01:21.353Z,22.90
2019-03-28T06:03:49.762Z,31.07
2019-03-28T06:06:37.277Z,24.63
2019-03-28T06:09:45.608Z,37.83
2019-03-28T06:12:33.250Z,25.47
2019-03-28T06:17:36.348Z,24.30
2019-03-28T06:22:58.530Z,25.63
2019-03-28T06:25:46.185Z,28.63
2019-03-28T06:28:14.589Z,26.37
2019-03-28T06:31:02.253Z,19.70
2019-03-28T06:33:30.654Z,31.03
2019-03-28T06:36:18.184Z,20.20
2019-03-28T06:38:46.621Z,17.43
2019-03-28T06:41:15.025Z,24.53
2019-03-28T06:44:02.687Z,21.87
2019-03-28T06:46:31.098Z,20.57
2019-03-28T06:49:18.753Z,20.73
2019-03-28T06:52:06.273Z,27.17
2019-03-28T06:54:34.690Z,34.30
2019-03-28T06:57:22.211Z,32.43
2019-03-28T07:00:09.877Z,35.37
2019-03-28T07:02:57.523Z,37.60
2019-03-28T07:05:45.186Z,41.50
2019-03-28T07:08:13.595Z,41.00
2019-03-28T07:11:01.253Z,40.13
2019-03-28T07:13:29.658Z,42.67
2019-03-28T07:15:58.071Z,48.93
2019-03-28T07:21:13.936Z,43.30
2019-03-28T07:24:01.581Z,45.37
2019-03-28T07:26:29.992Z,50.07
2019-03-28T07:28:59.398Z,41.70
2019-03-28T07:31:28.858Z,44.67
2019-03-28T07:33:57.267Z,37.87
2019-03-28T07:36:25.683Z,46.17
2019-03-28T07:39:13.508Z,53.37
2019-03-28T07:41:43.468Z,44.50
2019-03-28T07:44:31.127Z,47.90
2019-03-28T07:46:59.543Z,51.17
2019-03-28T07:49:47.205Z,52.33
2019-03-28T07:52:34.854Z,43.67
2019-03-28T07:57:58.331Z,38.20
2019-03-28T08:00:45.995Z,37.10
2019-03-28T08:03:14.402Z,37.10
2019-03-28T08:08:38.940Z,40.13
2019-03-28T08:11:06.453Z,38.63
2019-03-28T08:13:34.863Z,41.50
2019-03-28T08:16:03.302Z,33.13
2019-03-28T08:18:50.801Z,41.73
2019-03-28T08:21:19.217Z,34.60
2019-03-28T08:24:06.957Z,33.87
2019-03-28T08:26:54.492Z,32.40
2019-03-28T08:29:22.897Z,32.00
2019-03-28T08:34:45.771Z,44.23
2019-03-28T08:37:54.089Z,31.63
2019-03-28T08:40:42.517Z,31.17
2019-03-28T08:43:50.841Z,32.50
2019-03-28T08:48:53.503Z,34.57
2019-03-28T08:51:21.919Z,34.07
2019-03-28T08:56:57.095Z,38.00
2019-03-28T08:59:44.609Z,28.70
2019-03-28T09:02:32.275Z,33.83
2019-03-28T09:08:07.251Z,31.53
2019-03-28T09:13:49.339Z,31.63
2019-03-28T09:16:17.768Z,35.63
2019-03-28T09:19:05.424Z,31.10
2019-03-28T09:21:53.184Z,33.60
2019-03-28T09:24:21.589Z,41.43
2019-03-28T09:26:50.008Z,40.93
2019-03-28T09:29:37.667Z,34.27
2019-03-28T09:32:45.988Z,31.80
2019-03-28T09:35:54.311Z,35.13
2019-03-28T09:38:22.718Z,34.90
2019-03-28T09:41:10.256Z,31.40
2019-03-28T09:43:57.774Z,32.30
2019-03-28T09:46:45.308Z,30.43
2019-03-28T09:49:32.826Z,46.90
2019-03-28T09:52:20.355Z,33.00
2019-03-28T09:54:48.753Z,27.63
2019-03-28T09:57:17.175Z,33.27
2019-03-28T10:00:04.825Z,30.23
2019-03-28T10:02:52.574Z,31.77
2019-03-28T10:05:21.050Z,22.63
2019-03-28T10:07:49.471Z,33.50
2019-03-28T10:10:37.222Z,28.80
2019-03-28T10:13:05.640Z,31.17
2019-03-28T10:15:36.914Z,27.53
2019-03-28T10:18:44.355Z,29.13
2019-03-28T10:21:12.763Z,32.43
2019-03-28T10:24:00.308Z,28.83
2019-03-28T10:26:28.716Z,29.73
2019-03-28T10:29:16.364Z,23.67
2019-03-28T10:31:44.790Z,25.97
2019-03-28T10:34:32.482Z,28.47
2019-03-28T10:37:00.910Z,18.23
2019-03-28T10:39:29.314Z,19.37
2019-03-28T10:42:16.973Z,19.23
2019-03-28T10:44:45.379Z,24.43
2019-03-28T10:47:13.794Z,14.47
2019-03-28T10:52:29.641Z,14.87
2019-03-28T10:55:17.289Z,18.90
2019-03-28T10:58:17.672Z,14.40
2019-03-28T11:03:43.406Z,18.10
2019-03-28T11:06:11.875Z,18.03
2019-03-28T11:08:40.340Z,21.00
2019-03-28T11:11:28.016Z,17.13
2019-03-28T11:13:56.460Z,15.90
2019-03-28T11:16:24.913Z,12.90
2019-03-28T11:18:53.410Z,17.70
2019-03-28T11:21:41.175Z,19.03
2019-03-28T11:24:09.730Z,18.63
2019-03-28T11:26:57.747Z,16.83
2019-03-28T11:29:46.733Z,15.10
2019-03-28T11:32:15.175Z,20.30
2019-03-28T11:35:02.883Z,20.27
2019-03-28T11:37:50.609Z,17.73
2019-03-28T11:43:06.535Z,22.33
2019-03-28T11:45:54.085Z,23.30
2019-03-28T11:48:22.530Z,21.10
2019-03-28T11:50:50.948Z,16.63
2019-03-28T11:53:19.389Z,16.23
2019-03-28T11:56:07.075Z,14.53
2019-03-28T11:58:35.523Z,22.97
2019-03-28T12:03:51.390Z,18.17
2019-03-28T12:06:19.790Z,21.50
2019-03-28T12:08:48.208Z,17.00
2019-03-28T12:11:16.704Z,20.23
2019-03-28T12:13:45.430Z,27.60
2019-03-28T12:16:15.467Z,20.17
2019-03-28T12:21:18.775Z,18.37
2019-03-28T12:23:48.842Z,15.53
2019-03-28T12:26:17.322Z,18.50
2019-03-28T12:28:45.822Z,24.47
2019-03-28T12:31:14.395Z,18.70
2019-03-28T12:33:42.882Z,19.13
2019-03-28T12:36:11.409Z,16.10
2019-03-28T12:38:39.905Z,19.73
2019-03-28T12:41:08.388Z,23.70
2019-03-28T12:43:36.895Z,13.23
2019-03-28T12:46:05.373Z,21.00
2019-03-28T12:48:33.966Z,14.77
2019-03-28T12:51:02.435Z,20.90
2019-03-28T12:53:31.012Z,13.40
2019-03-28T12:55:59.472Z,14.67
2019-03-28T12:58:27.971Z,9.67
2019-03-28T13:00:56.837Z,25.87
2019-03-28T13:03:25.651Z,13.87
2019-03-28T13:05:54.247Z,14.40
2019-03-28T13:08:41.776Z,17.70
2019-03-28T13:11:29.292Z,12.10
2019-03-28T13:13:57.716Z,12.27
2019-03-28T13:19:32.817Z,16.23
2019-03-28T13:22:20.334Z,11.07
2019-03-28T13:24:48.750Z,11.93
2019-03-28T13:27:36.688Z,14.77
2019-03-28T13:30:24.801Z,13.67
2019-03-28T13:32:53.201Z,9.83
2019-03-28T13:35:40.863Z,13.40
2019-03-28T13:38:28.389Z,13.57
2019-03-28T13:41:15.899Z,10.63
2019-03-28T13:46:37.860Z,9.70
2019-03-28T13:49:06.273Z,12.90
2019-03-28T13:51:53.789Z,15.93
2019-03-28T13:54:23.399Z,20.43
2019-03-28T13:56:52.330Z,12.93
2019-03-28T13:59:20.744Z,12.30
2019-03-28T14:02:08.446Z,15.47
2019-03-28T14:04:36.853Z,20.73
2019-03-28T14:07:24.369Z,13.73
2019-03-28T14:09:52.782Z,12.93
2019-03-28T14:12:28.643Z,10.73
2019-03-28T14:14:57.061Z,14.47
2019-03-28T14:17:44.720Z,12.30
2019-03-28T14:20:53.028Z,12.40
2019-03-28T14:23:40.541Z,9.93
2019-03-28T14:26:28.192Z,14.60
2019-03-28T14:29:16.564Z,10.03
2019-03-28T14:31:45.863Z,13.27
2019-03-28T14:34:14.265Z,9.00
2019-03-28T14:37:01.790Z,10.23
2019-03-28T14:39:30.206Z,10.33
2019-03-28T14:42:19.728Z,16.93
2019-03-28T14:47:22.076Z,4.90
2019-03-28T14:49:50.528Z,7.43
2019-03-28T14:52:38.293Z,6.63
2019-03-28T14:55:46.622Z,4.50
2019-03-28T15:02:02.996Z,9.23
2019-03-28T15:04:50.660Z,5.93
2019-03-28T15:07:19.053Z,4.93
2019-03-28T15:10:06.720Z,4.30
2019-03-28T15:12:35.126Z,4.93
2019-03-28T15:17:58.373Z,7.60
2019-03-28T15:20:27.603Z,5.47
2019-03-28T15:22:56.923Z,4.53
2019-03-28T15:25:44.445Z,5.33
2019-03-28T15:28:12.839Z,8.23
2019-03-28T15:31:00.609Z,3.93
2019-03-28T15:33:48.327Z,4.67
2019-03-28T15:36:16.762Z,4.63
2019-03-28T15:38:45.216Z,5.03
2019-03-28T15:41:13.625Z,5.80
2019-03-28T15:43:42.025Z,7.73
2019-03-28T15:46:10.441Z,5.33
2019-03-28T15:48:58.078Z,3.30
2019-03-28T15:51:45.859Z,4.40
2019-03-28T15:54:33.366Z,4.93
2019-03-28T15:57:01.775Z,4.00
2019-03-28T15:59:30.172Z,3.70
2019-03-28T16:01:59.903Z,3.90
2019-03-28T16:07:35.263Z,3.40
2019-03-28T16:10:43.580Z,3.70
2019-03-28T16:13:31.098Z,5.17
2019-03-28T16:15:59.505Z,4.63
2019-03-28T16:18:47.152Z,7.67
2019-03-28T16:21:15.604Z,6.70
2019-03-28T16:24:03.250Z,3.40
2019-03-28T16:29:05.614Z,3.97
2019-03-28T16:31:34.040Z,5.60
2019-03-28T16:34:21.678Z,6.80
2019-03-28T16:37:09.332Z,4.27
2019-03-28T16:39:56.849Z,4.00
2019-03-28T16:42:44.520Z,4.27
2019-03-28T16:45:52.835Z,5.77
2019-03-28T16:48:40.476Z,4.87
2019-03-28T16:51:28.145Z,4.77
2019-03-28T16:53:56.547Z,8.13
2019-03-28T16:59:18.462Z,4.37
2019-03-28T17:02:06.115Z,4.60
2019-03-28T17:04:34.513Z,5.00
2019-03-28T17:10:17.428Z,7.63
2019-03-28T17:12:45.831Z,4.80
2019-03-28T17:15:33.537Z,3.87
2019-03-28T17:18:01.938Z,3.93
2019-03-28T17:20:30.332Z,5.07
2019-03-28T17:22:58.741Z,6.80
2019-03-28T17:25:46.263Z,8.13
2019-03-28T17:28:14.662Z,4.87
2019-03-28T17:33:38.190Z,5.47
2019-03-28T17:36:06.601Z,11.57
2019-03-28T17:41:22.445Z,4.97
2019-03-28T17:44:10.092Z,5.83
2019-03-28T17:46:57.758Z,8.60
2019-03-28T17:49:26.299Z,5.73
2019-03-28T17:52:15.521Z,8.30
2019-03-28T17:55:03.583Z,9.57
2019-03-28T17:57:51.138Z,5.80
2019-03-28T18:00:59.443Z,7.43
2019-03-28T18:03:46.958Z,9.10
2019-03-28T18:06:34.977Z,6.43
2019-03-28T18:12:30.739Z,9.67
2019-03-28T18:14:59.146Z,5.43
2019-03-28T18:17:46.659Z,5.80
2019-03-28T18:20:34.299Z,6.00
2019-03-28T18:23:21.827Z,7.50
2019-03-28T18:25:50.299Z,5.93
2019-03-28T18:28:18.732Z,5.67
2019-03-28T18:30:47.519Z,5.87
2019-03-28T18:33:15.943Z,7.77
2019-03-28T18:35:44.487Z,6.20
2019-03-28T18:38:12.975Z,6.00
2019-03-28T18:40:41.418Z,8.90
2019-03-28T18:43:09.831Z,8.83
2019-03-28T18:45:38.227Z,16.47
2019-03-28T18:48:29.559Z,6.63
2019-03-28T19:04:21.367Z,9.53
2019-03-28T19:07:09.837Z,15.40
2019-03-28T19:10:19.143Z,8.40
2019-03-28T19:12:48.147Z,8.20
2019-03-28T19:15:18.001Z,9.80
2019-03-28T19:17:46.408Z,6.53
2019-03-28T19:20:34.097Z,9.50
2019-03-28T19:28:11.032Z,8.67
2019-03-28T19:34:07.956Z,7.03
2019-03-28T19:37:16.260Z,9.80
2019-03-28T19:39:44.668Z,7.70
2019-03-28T19:42:13.072Z,6.50
2019-03-28T19:45:21.399Z,12.40
2019-03-28T19:50:37.256Z,33.73
2019-03-28T19:53:45.578Z,29.13
2019-03-28T19:56:13.982Z,16.10
2019-03-28T19:59:01.549Z,18.77
2019-03-28T20:01:49.108Z,14.27
2019-03-28T20:06:51.568Z,14.67
2019-03-28T20:09:20.063Z,16.63
2019-03-28T20:11:48.513Z,11.40
2019-03-28T20:14:16.981Z,10.37
2019-03-28T20:17:04.766Z,14.13
2019-03-28T20:19:52.336Z,13.57
2019-03-28T20:22:40.038Z,14.40
2019-03-28T20:25:48.387Z,10.70
2019-03-28T20:28:16.821Z,9.37
2019-03-28T20:31:04.538Z,9.47
2019-03-28T20:33:33.034Z,10.47
2019-03-28T20:36:36.762Z,14.87
2019-03-28T20:39:03.379Z,10.80
2019-03-28T20:41:21.110Z,14.83
2019-03-28T20:43:49.605Z,21.50
2019-03-28T20:46:20.580Z,19.93
2019-03-28T20:51:24.594Z,14.60
2019-03-28T20:54:11.698Z,14.27
2019-03-28T20:56:59.403Z,12.00
2019-03-28T20:59:27.863Z,12.63
2019-03-28T21:01:57.034Z,11.93
2019-03-28T21:07:00.281Z,14.83
2019-03-28T21:09:47.848Z,12.30
2019-03-28T21:12:17.041Z,16.67
2019-03-28T21:15:05.599Z,12.20
2019-03-28T21:17:53.428Z,10.87
2019-03-28T21:20:21.909Z,12.47
2019-03-28T21:23:09.615Z,15.53
2019-03-28T21:25:57.321Z,17.90
2019-03-28T21:31:32.578Z,12.27
2019-03-28T21:34:21.008Z,16.77
2019-03-28T21:39:57.027Z,15.33
2019-03-28T21:42:25.483Z,12.80
2019-03-28T21:44:53.930Z,16.00
2019-03-28T21:47:41.637Z,15.43
2019-03-28T21:50:50.007Z,13.23
2019-03-28T21:53:37.819Z,14.30
2019-03-28T21:56:25.441Z,16.03
2019-03-28T21:58:53.910Z,13.50
2019-03-28T22:01:41.644Z,12.43
2019-03-28T22:04:10.117Z,12.97
2019-03-28T22:06:57.938Z,12.53
2019-03-28T22:09:26.395Z,13.10
2019-03-28T22:12:14.258Z,16.43
2019-03-28T22:15:01.988Z,14.13
2019-03-28T22:17:49.688Z,18.97
2019-03-28T22:20:18.240Z,13.90
2019-03-28T22:22:46.711Z,17.13
2019-03-28T22:25:15.158Z,13.97
2019-03-28T22:28:02.962Z,19.00
2019-03-28T22:30:50.789Z,15.47
2019-03-28T22:36:06.710Z,16.20
2019-03-28T22:38:35.191Z,19.47
2019-03-28T22:41:23.084Z,16.33
2019-03-28T22:44:14.148Z,18.03
2019-03-28T22:46:41.105Z,21.47
2019-03-28T22:49:28.822Z,20.90
2019-03-28T22:52:16.389Z,20.13
2019-03-28T22:54:44.832Z,22.40
2019-03-28T22:57:32.404Z,22.73
2019-03-28T23:03:14.867Z,20.77
2019-03-28T23:06:02.502Z,20.87
2019-03-28T23:11:40.663Z,23.13
2019-03-28T23:14:09.265Z,20.10
2019-03-28T23:16:37.740Z,19.77
2019-03-28T23:19:25.301Z,23.20
2019-03-28T23:24:27.672Z,23.07
2019-03-28T23:26:56.156Z,18.70
2019-03-28T23:32:12.880Z,21.10
2019-03-28T23:34:42.253Z,26.33
2019-03-28T23:37:29.817Z,21.77
2019-03-28T23:40:17.394Z,20.17
2019-03-28T23:42:45.833Z,20.47
2019-03-28T23:48:09.229Z,22.23
2019-03-28T23:50:37.708Z,22.23
2019-03-28T23:53:25.504Z,21.43
2019-03-28T23:55:53.977Z,21.90
2019-03-28T23:58:41.541Z,19.80
